createdAt,value
2023-04-26T00:00:44.385Z,100
2023-04-26T00:10:46.673Z,100
2023-04-26T00:30:51.007Z,100
2023-04-26T00:40:52.932Z,100
2023-04-26T01:00:57.085Z,100
2023-04-26T01:10:59.408Z,100
2023-04-26T01:21:03.328Z,100
2023-04-26T01:31:03.820Z,100
2023-04-26T01:41:05.795Z,100
2023-04-26T01:51:07.628Z,100
2023-04-26T02:01:09.790Z,100
2023-04-26T02:11:11.819Z,100
2023-04-26T02:21:13.954Z,100
2023-04-26T02:31:16.099Z,100
2023-04-26T02:41:18.558Z,100
2023-04-26T02:51:20.893Z,100
2023-04-26T03:01:22.929Z,100
2023-04-26T03:21:27.318Z,100
2023-04-26T03:31:29.299Z,100
2023-04-26T03:41:31.633Z,100
2023-04-26T03:51:34.324Z,100
2023-04-26T04:01:36.282Z,100
2023-04-26T04:11:38.735Z,100
2023-04-26T04:21:40.613Z,100
2023-04-26T04:31:42.769Z,100
2023-04-26T04:41:44.853Z,100
2023-04-26T04:51:47.417Z,100
2023-04-26T05:01:49.673Z,100
2023-04-26T05:11:52.160Z,100
2023-04-26T05:21:54.828Z,100
2023-04-26T05:31:57.260Z,100
2023-04-26T05:41:59.434Z,100
2023-04-26T05:52:02.028Z,100
2023-04-26T06:02:04.410Z,100
2023-04-26T06:12:06.172Z,100
2023-04-26T06:22:08.192Z,100
2023-04-26T06:32:10.092Z,100
2023-04-26T06:42:12.512Z,99
2023-04-26T07:02:16.630Z,96
2023-04-26T07:12:19.022Z,94
2023-04-26T07:22:20.913Z,94
2023-04-26T07:32:22.709Z,93
2023-04-26T07:42:25.177Z,92
2023-04-26T07:52:26.989Z,92
2023-04-26T08:02:43.243Z,91
2023-04-26T08:12:32.050Z,90
2023-04-26T08:22:34.046Z,89
2023-04-26T08:32:35.757Z,88
2023-04-26T08:42:38.292Z,89
2023-04-26T08:52:40.110Z,88
2023-04-26T09:02:42.983Z,89
2023-04-26T09:12:44.795Z,89
2023-04-26T09:22:47.199Z,95
2023-04-26T09:42:52.250Z,98
2023-04-26T10:03:03.213Z,99
2023-04-26T10:13:05.537Z,96
2023-04-26T10:23:07.304Z,94
2023-04-26T10:33:09.344Z,93
2023-04-26T10:43:11.140Z,99
2023-04-26T10:53:13.494Z,86
2023-04-26T11:03:16.226Z,82
2023-04-26T11:13:18.745Z,82
2023-04-26T11:23:20.602Z,75
2023-04-26T11:43:25.339Z,65
2023-04-26T11:53:27.603Z,64
2023-04-26T12:03:29.770Z,62
2023-04-26T12:13:32.169Z,63
2023-04-26T12:23:34.783Z,62
2023-04-26T12:33:36.545Z,64
2023-04-26T12:43:39.049Z,64
2023-04-26T12:53:41.487Z,75
2023-04-26T13:03:44.207Z,98
2023-04-26T13:13:46.464Z,97
2023-04-26T13:33:50.168Z,88
2023-04-26T13:53:54.976Z,87
2023-04-26T14:34:04.638Z,82
2023-04-26T14:44:07.033Z,82
2023-04-26T14:54:09.608Z,82
2023-04-26T15:04:11.554Z,81
2023-04-26T15:14:13.891Z,80
2023-04-26T15:24:15.678Z,78
2023-04-26T15:34:17.905Z,78
2023-04-26T15:44:19.819Z,78
2023-04-26T15:54:21.652Z,80
2023-04-26T16:04:23.608Z,82
2023-04-26T16:24:27.986Z,84
2023-04-26T16:34:30.399Z,85
2023-04-26T16:44:32.373Z,86
2023-04-26T16:54:34.713Z,88
2023-04-26T17:04:37.168Z,89
2023-04-26T17:34:43.078Z,92
2023-04-26T17:44:45.077Z,93
2023-04-26T17:54:46.822Z,94
2023-04-26T18:04:49.221Z,95
2023-04-26T18:24:53.108Z,96
2023-04-26T18:34:55.566Z,97
2023-04-26T18:44:57.733Z,98
2023-04-26T18:54:59.871Z,99
2023-04-26T19:05:02.294Z,99
2023-04-26T19:15:04.161Z,100
2023-04-26T19:25:06.670Z,100
2023-04-26T19:35:09.014Z,100
2023-04-26T19:45:11.603Z,100
2023-04-26T19:55:13.827Z,100
2023-04-26T20:15:18.579Z,100
2023-04-26T20:25:20.915Z,100
2023-04-26T20:35:23.223Z,100
2023-04-26T20:45:24.942Z,100
2023-04-26T20:55:26.937Z,100
2023-04-26T21:05:29.265Z,100
2023-04-26T21:15:31.395Z,100
2023-04-26T21:25:33.277Z,100
2023-04-26T21:35:35.727Z,100
2023-04-26T21:45:37.562Z,100
2023-04-26T21:55:40.188Z,100
2023-04-26T22:05:42.853Z,100
2023-04-26T22:15:44.695Z,100
2023-04-26T22:25:47.302Z,100
2023-04-26T22:35:49.322Z,100
2023-04-26T22:45:51.998Z,100
2023-04-26T23:05:56.443Z,100
2023-04-26T23:15:58.150Z,100
2023-04-26T23:26:00.706Z,100
2023-04-26T23:46:04.704Z,100
2023-04-26T23:56:06.565Z,100
